createdAt,value
2019-02-22T00:00:41.750Z,97788.80
2019-02-22T00:03:10.935Z,97790.84
2019-02-22T00:05:40.178Z,97793.19
2019-02-22T00:08:09.288Z,97796.31
2019-02-22T00:10:39.508Z,97794.82
2019-02-22T00:13:09.183Z,97793.34
2019-02-22T00:15:38.395Z,97800.80
2019-02-22T00:18:08.003Z,97791.58
2019-02-22T00:20:41.247Z,97789.38
2019-02-22T00:23:11.893Z,97802.77
2019-02-22T00:25:42.801Z,97796.78
2019-02-22T00:28:16.252Z,97792.69
2019-02-22T00:30:54.649Z,97798.55
2019-02-22T00:33:25.298Z,97801.80
2019-02-22T00:35:56.640Z,97802.04
2019-02-22T00:38:29.474Z,97800.22
2019-02-22T00:41:01.506Z,96320.53
2019-02-22T00:43:33.788Z,97792.04
2019-02-22T00:46:05.972Z,97801.50
2019-02-22T00:48:38.904Z,97815.20
2019-02-22T00:51:10.280Z,97809.81
2019-02-22T00:53:40.883Z,97804.56
2019-02-22T00:56:14.618Z,97806.09
2019-02-22T00:58:47.276Z,97804.33
2019-02-22T01:01:16.394Z,97796.59
2019-02-22T01:03:46.786Z,97799.84
2019-02-22T01:06:16.084Z,97799.52
2019-02-22T01:08:45.343Z,97798.44
2019-02-22T01:11:14.943Z,97798.53
2019-02-22T01:13:44.106Z,97799.52
2019-02-22T01:16:15.021Z,97797.18
2019-02-22T01:18:53.722Z,97799.09
2019-02-22T01:21:22.871Z,97805.87
2019-02-22T01:23:52.095Z,97809.77
2019-02-22T01:26:23.060Z,97801.72
2019-02-22T01:29:06.471Z,97808.42
2019-02-22T01:31:23.047Z,97795.14
2019-02-22T01:33:54.082Z,97797.27
2019-02-22T01:36:23.090Z,97788.99
2019-02-22T01:39:01.482Z,97794.29
2019-02-22T01:41:30.609Z,97793.37
2019-02-22T01:44:02.776Z,97792.16
2019-02-22T01:46:35.225Z,97797.67
2019-02-22T01:49:04.537Z,97799.92
2019-02-22T01:51:33.661Z,97802.58
2019-02-22T01:54:04.913Z,97798.45
2019-02-22T01:56:33.800Z,97797.64
2019-02-22T01:59:03.844Z,97801.58
2019-02-22T02:01:33.024Z,97802.30
2019-02-22T02:04:02.062Z,97802.29
2019-02-22T02:06:32.593Z,97805.28
2019-02-22T02:09:05.308Z,97802.06
2019-02-22T02:11:35.820Z,97797.05
2019-02-22T02:14:11.138Z,97810.12
2019-02-22T02:16:47.283Z,97801.02
2019-02-22T02:19:18.086Z,97810.04
2019-02-22T02:21:59.414Z,97807.34
2019-02-22T02:24:29.774Z,97798.46
2019-02-22T02:26:59.863Z,97809.09
2019-02-22T02:29:31.740Z,97802.22
2019-02-22T02:32:00.840Z,97806.03
2019-02-22T02:34:29.959Z,97805.61
2019-02-22T02:37:00.102Z,97811.87
2019-02-22T02:39:32.773Z,97812.36
2019-02-22T02:42:01.917Z,97811.03
2019-02-22T02:44:32.215Z,97815.45
2019-02-22T02:47:02.419Z,97814.02
2019-02-22T02:49:33.246Z,97808.20
2019-02-22T02:52:04.269Z,97812.73
2019-02-22T02:54:34.542Z,97812.59
2019-02-22T02:57:03.699Z,97825.70
2019-02-22T02:59:35.034Z,97833.82
2019-02-22T03:02:14.209Z,97828.89
2019-02-22T03:04:43.426Z,97879.45
2019-02-22T03:07:22.152Z,97829.07
2019-02-22T03:09:51.270Z,97830.20
2019-02-22T03:12:26.930Z,97835.50
2019-02-22T03:14:57.132Z,97835.17
2019-02-22T03:17:28.053Z,97837.75
2019-02-22T03:19:58.279Z,97848.30
2019-02-22T03:22:29.828Z,97842.95
2019-02-22T03:24:58.929Z,97845.84
2019-02-22T03:27:29.714Z,97843.16
2019-02-22T03:29:58.780Z,97848.70
2019-02-22T03:32:32.048Z,97862.22
2019-02-22T03:35:01.168Z,97861.33
2019-02-22T03:37:31.085Z,97860.27
2019-02-22T03:40:00.391Z,97859.45
2019-02-22T03:42:39.085Z,97854.08
2019-02-22T03:45:14.223Z,97854.88
2019-02-22T03:47:45.228Z,97860.13
2019-02-22T03:50:14.538Z,97866.75
2019-02-22T03:52:50.508Z,97866.03
2019-02-22T03:55:20.004Z,97869.94
2019-02-22T03:57:55.434Z,97865.09
2019-02-22T04:00:27.806Z,97865.88
2019-02-22T04:02:56.921Z,97868.11
2019-02-22T04:05:26.041Z,97863.33
2019-02-22T04:07:55.232Z,97867.35
2019-02-22T04:10:30.560Z,97871.30
2019-02-22T04:13:02.005Z,97869.39
2019-02-22T04:15:36.667Z,97873.55
2019-02-22T04:18:11.161Z,97875.88
2019-02-22T04:20:40.342Z,97889.28
2019-02-22T04:23:09.454Z,97886.40
2019-02-22T04:25:42.426Z,97884.11
2019-02-22T04:28:11.537Z,97879.48
2019-02-22T04:30:40.642Z,97885.37
2019-02-22T04:33:11.495Z,97883.78
2019-02-22T04:35:40.644Z,97888.48
2019-02-22T04:38:09.777Z,97890.50
2019-02-22T04:40:39.154Z,97893.44
2019-02-22T04:43:11.219Z,97895.86
2019-02-22T04:45:40.361Z,97905.55
2019-02-22T04:48:11.182Z,97901.08
2019-02-22T04:50:41.240Z,97904.95
2019-02-22T04:53:10.345Z,97905.92
2019-02-22T04:55:40.936Z,97904.16
2019-02-22T04:58:15.393Z,97905.89
2019-02-22T05:00:44.548Z,97902.31
2019-02-22T05:03:17.852Z,97910.39
2019-02-22T05:05:50.900Z,97907.34
2019-02-22T05:08:22.523Z,97910.70
2019-02-22T05:10:53.288Z,97913.19
2019-02-22T05:13:22.602Z,97916.86
2019-02-22T05:15:51.726Z,97915.02
2019-02-22T05:18:20.872Z,97912.53
2019-02-22T05:20:54.685Z,97907.97
2019-02-22T05:23:23.845Z,97905.62
2019-02-22T05:25:54.226Z,97905.48
2019-02-22T05:28:23.869Z,97908.11
2019-02-22T05:30:55.221Z,97911.31
2019-02-22T05:33:24.365Z,97912.77
2019-02-22T05:35:54.664Z,97917.62
2019-02-22T05:38:27.648Z,97918.38
2019-02-22T05:41:02.470Z,97931.69
2019-02-22T05:43:32.015Z,97933.63
2019-02-22T05:46:04.304Z,97934.55
2019-02-22T05:48:33.483Z,97935.14
2019-02-22T05:51:02.615Z,97933.92
2019-02-22T05:53:31.783Z,97939.30
2019-02-22T05:56:00.935Z,97942.79
2019-02-22T05:58:30.071Z,97945.13
2019-02-22T06:01:06.604Z,97938.73
2019-02-22T06:03:37.346Z,97947.09
2019-02-22T06:06:12.925Z,97946.90
2019-02-22T06:08:42.063Z,97953.11
2019-02-22T06:11:12.861Z,97948.72
2019-02-22T06:13:42.140Z,97951.10
2019-02-22T06:16:13.179Z,97945.89
2019-02-22T06:18:42.400Z,97950.72
2019-02-22T06:21:11.824Z,97955.80
2019-02-22T06:23:46.084Z,97957.73
2019-02-22T06:26:15.438Z,97953.80
2019-02-22T06:28:44.559Z,97964.34
2019-02-22T06:31:14.874Z,97971.17
2019-02-22T06:33:45.707Z,97974.05
2019-02-22T06:36:18.770Z,97981.80
2019-02-22T06:38:48.109Z,97981.44
2019-02-22T06:41:17.305Z,97993.54
2019-02-22T06:43:49.191Z,97995.74
2019-02-22T06:46:19.964Z,97991.65
2019-02-22T06:48:54.958Z,97998.94
2019-02-22T06:51:24.439Z,97753.88
2019-02-22T06:53:54.677Z,98009.20
2019-02-22T06:56:24.376Z,98016.48
2019-02-22T06:58:54.669Z,98014.19
2019-02-22T07:01:28.049Z,98013.66
2019-02-22T07:03:59.288Z,98016.03
2019-02-22T07:06:28.715Z,98011.64
2019-02-22T07:08:58.224Z,98016.83
2019-02-22T07:11:50.823Z,98017.80
2019-02-22T07:14:22.959Z,98018.17
2019-02-22T07:16:52.687Z,98020.22
2019-02-22T07:19:23.807Z,98007.90
2019-02-22T07:21:53.308Z,98006.03
2019-02-22T07:24:22.412Z,98011.07
2019-02-22T07:26:55.006Z,98026.13
2019-02-22T07:29:24.150Z,98030.02
2019-02-22T07:32:02.678Z,98026.86
2019-02-22T07:34:24.438Z,98026.94
2019-02-22T07:36:55.222Z,98028.49
2019-02-22T07:39:27.879Z,98025.23
2019-02-22T07:41:57.385Z,98027.06
2019-02-22T07:44:26.687Z,98036.22
2019-02-22T07:46:58.343Z,98044.22
2019-02-22T07:49:28.839Z,98045.01
2019-02-22T07:52:02.294Z,98046.41
2019-02-22T07:54:31.837Z,98048.98
2019-02-22T07:57:04.664Z,98056.73
2019-02-22T07:59:33.818Z,98053.62
2019-02-22T08:02:03.051Z,98057.96
2019-02-22T08:04:32.485Z,98057.63
2019-02-22T08:07:02.110Z,98063.23
2019-02-22T08:09:35.079Z,98075.02
2019-02-22T08:12:05.079Z,98070.80
2019-02-22T08:14:34.206Z,98071.05
2019-02-22T08:17:03.728Z,98071.69
2019-02-22T08:19:36.050Z,98079.34
2019-02-22T08:22:05.704Z,98088.75
2019-02-22T08:24:37.897Z,98083.71
2019-02-22T08:27:10.057Z,98083.38
2019-02-22T08:29:40.921Z,98080.83
2019-02-22T08:32:12.689Z,98083.84
2019-02-22T08:34:42.615Z,98080.58
2019-02-22T08:37:11.803Z,98075.34
2019-02-22T08:39:41.563Z,98075.06
2019-02-22T08:42:18.902Z,98079.09
2019-02-22T08:44:51.739Z,98071.08
2019-02-22T08:47:24.092Z,98071.14
2019-02-22T08:49:56.264Z,98081.60
2019-02-22T08:52:27.089Z,97861.31
2019-02-22T08:54:57.722Z,98092.78
2019-02-22T08:57:27.339Z,98134.20
2019-02-22T08:59:56.689Z,98093.02
2019-02-22T09:02:28.502Z,98098.16
2019-02-22T09:04:59.839Z,98094.13
2019-02-22T09:07:38.959Z,98099.78
2019-02-22T09:10:01.808Z,98097.67
2019-02-22T09:12:34.606Z,98102.09
2019-02-22T09:15:04.276Z,98101.77
2019-02-22T09:17:34.677Z,98103.57
2019-02-22T09:20:06.770Z,98110.45
2019-02-22T09:22:40.311Z,98107.66
2019-02-22T09:25:13.034Z,98113.63
2019-02-22T09:27:44.223Z,98111.63
2019-02-22T09:30:13.441Z,98115.98
2019-02-22T09:32:44.578Z,98179.29
2019-02-22T09:35:14.655Z,98119.16
2019-02-22T09:37:53.352Z,98119.37
2019-02-22T09:40:22.691Z,98125.95
2019-02-22T09:42:52.701Z,98127.89
2019-02-22T09:45:24.326Z,98132.34
2019-02-22T09:47:52.764Z,98129.14
2019-02-22T09:50:24.382Z,98128.11
2019-02-22T09:52:59.753Z,98131.52
2019-02-22T09:55:29.002Z,98134.30
2019-02-22T09:57:58.731Z,98130.77
2019-02-22T10:00:27.847Z,98127.80
2019-02-22T10:02:57.251Z,98132.42
2019-02-22T10:05:27.892Z,98140.09
2019-02-22T10:07:57.505Z,98138.98
2019-02-22T10:10:26.672Z,98136.57
2019-02-22T10:13:00.269Z,98139.02
2019-02-22T10:15:31.258Z,98144.83
2019-02-22T10:18:00.412Z,98137.98
2019-02-22T10:20:34.952Z,98139.43
2019-02-22T10:23:09.548Z,98142.02
2019-02-22T10:25:48.555Z,98140.45
2019-02-22T10:28:21.885Z,98143.34
2019-02-22T10:30:51.246Z,98139.66
2019-02-22T10:33:35.946Z,98146.54
2019-02-22T10:35:58.547Z,98154.27
2019-02-22T10:38:35.683Z,98188.95
2019-02-22T10:41:11.063Z,98168.74
2019-02-22T10:43:40.214Z,98162.47
2019-02-22T10:46:12.123Z,98165.42
2019-02-22T10:48:44.537Z,98168.02
2019-02-22T10:51:13.647Z,98165.17
2019-02-22T10:53:44.761Z,98191.27
2019-02-22T10:56:17.848Z,98163.68
2019-02-22T10:58:48.685Z,98170.48
2019-02-22T11:01:24.844Z,98163.83
2019-02-22T11:03:59.733Z,98165.28
2019-02-22T11:06:28.840Z,98163.27
2019-02-22T11:09:06.081Z,98168.39
2019-02-22T11:11:35.630Z,98167.95
2019-02-22T11:14:05.183Z,98164.70
2019-02-22T11:16:34.558Z,98160.08
2019-02-22T11:19:05.271Z,97846.88
2019-02-22T11:21:34.831Z,98162.02
2019-02-22T11:24:08.961Z,98156.72
2019-02-22T11:26:38.525Z,98176.11
2019-02-22T11:29:09.518Z,98150.84
2019-02-22T11:31:41.141Z,98151.78
2019-02-22T11:34:10.343Z,98146.20
2019-02-22T11:36:39.459Z,98149.32
2019-02-22T11:39:10.458Z,98141.89
2019-02-22T11:41:39.783Z,98148.05
2019-02-22T11:44:25.523Z,98155.28
2019-02-22T11:46:54.679Z,98159.80
2019-02-22T11:49:23.794Z,98160.94
2019-02-22T11:51:55.815Z,98160.52
2019-02-22T11:54:24.094Z,98160.84
2019-02-22T11:56:53.337Z,98165.17
2019-02-22T11:59:24.433Z,98163.85
2019-02-22T12:01:56.767Z,98159.88
2019-02-22T12:04:26.107Z,98168.22
2019-02-22T12:06:55.603Z,98167.89
2019-02-22T12:09:27.989Z,98166.98
2019-02-22T12:12:04.464Z,98171.16
2019-02-22T12:14:34.739Z,98177.42
2019-02-22T12:17:04.332Z,98183.00
2019-02-22T12:19:33.562Z,98184.03
2019-02-22T12:22:02.728Z,98179.14
2019-02-22T12:24:34.690Z,98183.95
2019-02-22T12:27:06.943Z,98185.52
2019-02-22T12:29:36.169Z,98185.89
2019-02-22T12:32:09.854Z,98189.27
2019-02-22T12:34:40.175Z,98192.63
2019-02-22T12:37:09.417Z,98191.54
2019-02-22T12:39:42.358Z,98186.38
2019-02-22T12:42:14.426Z,98189.22
2019-02-22T12:44:49.543Z,98202.04
2019-02-22T12:47:20.404Z,98189.31
2019-02-22T12:49:49.606Z,98203.53
2019-02-22T12:52:20.730Z,98202.30
2019-02-22T12:54:55.466Z,98202.30
2019-02-22T12:57:31.765Z,98195.44
2019-02-22T13:00:02.027Z,98201.71
2019-02-22T13:02:35.016Z,98209.28
2019-02-22T13:05:06.322Z,98207.30
2019-02-22T13:07:38.342Z,98206.53
2019-02-22T13:10:10.515Z,98202.37
2019-02-22T13:12:43.973Z,98204.56
2019-02-22T13:15:14.822Z,98200.13
2019-02-22T13:17:44.473Z,98194.48
2019-02-22T13:20:15.745Z,97903.56
2019-02-22T13:22:50.950Z,98203.58
2019-02-22T13:25:21.584Z,98196.16
2019-02-22T13:27:55.241Z,98203.66
2019-02-22T13:30:25.714Z,98199.02
2019-02-22T13:32:58.595Z,98199.82
2019-02-22T13:35:30.500Z,98200.51
2019-02-22T13:37:59.804Z,98207.20
2019-02-22T13:40:30.121Z,98214.37
2019-02-22T13:43:01.696Z,98216.01
2019-02-22T13:45:32.732Z,98216.44
2019-02-22T13:48:01.967Z,98218.89
2019-02-22T13:50:31.113Z,98224.81
2019-02-22T13:53:00.397Z,98232.48
2019-02-22T13:55:39.604Z,98230.22
2019-02-22T13:58:08.776Z,98224.16
2019-02-22T14:00:47.038Z,98232.02
2019-02-22T14:03:16.355Z,98231.05
2019-02-22T14:05:48.223Z,98239.69
2019-02-22T14:08:17.459Z,98236.85
2019-02-22T14:10:48.696Z,98236.02
2019-02-22T14:13:18.776Z,98246.05
2019-02-22T14:15:48.175Z,98242.70
2019-02-22T14:18:17.531Z,98239.70
2019-02-22T14:20:49.636Z,98237.62
2019-02-22T14:23:18.812Z,98239.66
2019-02-22T14:25:48.090Z,98243.17
2019-02-22T14:28:17.713Z,98237.31
2019-02-22T14:30:46.890Z,98248.55
2019-02-22T14:33:16.295Z,98245.39
2019-02-22T14:35:45.412Z,98242.06
2019-02-22T14:38:31.903Z,98244.98
2019-02-22T14:41:16.189Z,98243.25
2019-02-22T14:43:45.319Z,98245.55
2019-02-22T14:46:25.367Z,98240.17
2019-02-22T14:48:45.309Z,98245.25
2019-02-22T14:51:15.381Z,98247.31
2019-02-22T14:53:46.572Z,98246.64
2019-02-22T14:56:15.783Z,98244.84
2019-02-22T14:58:47.265Z,98249.27
2019-02-22T15:01:25.514Z,98250.41
2019-02-22T15:04:00.225Z,98247.96
2019-02-22T15:06:36.789Z,98250.64
2019-02-22T15:09:06.811Z,98250.91
2019-02-22T15:11:36.575Z,98244.30
2019-02-22T15:14:07.300Z,98246.22
2019-02-22T15:16:59.651Z,98247.16
2019-02-22T15:19:28.812Z,98252.16
2019-02-22T15:22:07.050Z,98254.98
2019-02-22T15:24:36.193Z,98254.17
2019-02-22T15:27:05.329Z,98256.53
2019-02-22T15:29:34.445Z,98253.27
2019-02-22T15:32:04.715Z,98251.84
2019-02-22T15:34:36.180Z,98246.86
2019-02-22T15:37:27.036Z,98190.87
2019-02-22T15:40:00.468Z,98248.89
2019-02-22T15:42:33.158Z,98252.77
2019-02-22T15:45:06.089Z,98262.02
2019-02-22T15:47:35.148Z,98261.48
2019-02-22T15:50:08.144Z,98256.28
2019-02-22T15:52:39.348Z,98262.06
2019-02-22T15:55:09.156Z,98273.17
2019-02-22T15:57:40.085Z,98264.74
2019-02-22T16:00:12.503Z,98269.58
2019-02-22T16:02:41.640Z,98269.92
2019-02-22T16:05:32.912Z,98270.34
2019-02-22T16:08:07.972Z,98271.58
2019-02-22T16:10:52.734Z,98269.96
2019-02-22T16:13:27.467Z,98274.25
2019-02-22T16:15:56.755Z,98274.91
2019-02-22T16:18:26.849Z,98272.88
2019-02-22T16:20:57.888Z,98273.77
2019-02-22T16:23:28.390Z,98270.32
2019-02-22T16:26:00.457Z,98270.08
2019-02-22T16:28:34.972Z,98268.97
2019-02-22T16:31:06.912Z,98260.60
2019-02-22T16:33:36.051Z,98267.20
2019-02-22T16:36:08.412Z,98266.16
2019-02-22T16:38:39.031Z,98269.13
2019-02-22T16:41:08.135Z,98274.22
2019-02-22T16:43:38.982Z,98273.82
2019-02-22T16:46:08.280Z,98274.86
2019-02-22T16:48:37.630Z,98274.88
2019-02-22T16:51:06.806Z,98273.73
2019-02-22T16:53:37.079Z,98279.00
2019-02-22T16:56:09.628Z,98281.89
2019-02-22T16:58:38.827Z,98280.98
2019-02-22T17:01:08.417Z,98284.08
2019-02-22T17:03:37.543Z,98280.06
2019-02-22T17:06:06.696Z,98285.26
2019-02-22T17:08:35.856Z,97997.32
2019-02-22T17:11:05.299Z,98278.25
2019-02-22T17:13:36.315Z,98278.20
2019-02-22T17:16:10.810Z,98282.42
2019-02-22T17:18:40.037Z,98284.05
2019-02-22T17:21:13.268Z,98290.28
2019-02-22T17:23:40.625Z,98294.44
2019-02-22T17:26:13.127Z,98296.80
2019-02-22T17:28:42.594Z,98297.22
2019-02-22T17:31:13.487Z,98308.59
2019-02-22T17:33:45.031Z,98306.83
2019-02-22T17:36:14.170Z,98312.02
2019-02-22T17:38:44.002Z,98304.70
2019-02-22T17:41:16.763Z,98300.00
2019-02-22T17:43:49.335Z,98299.88
2019-02-22T17:46:21.675Z,98307.22
2019-02-22T17:48:52.847Z,98296.06
2019-02-22T17:51:23.048Z,98293.39
2019-02-22T17:53:55.179Z,98293.59
2019-02-22T17:56:24.301Z,98322.40
2019-02-22T17:58:53.454Z,98301.31
2019-02-22T18:01:25.025Z,98302.70
2019-02-22T18:03:54.137Z,98302.11
2019-02-22T18:06:23.283Z,98305.14
2019-02-22T18:08:54.068Z,98301.83
2019-02-22T18:11:23.275Z,98311.84
2019-02-22T18:13:53.890Z,98307.95
2019-02-22T18:16:24.596Z,98311.47
2019-02-22T18:18:54.559Z,98314.98
2019-02-22T18:21:24.864Z,98317.08
2019-02-22T18:23:54.003Z,98322.39
2019-02-22T18:26:23.113Z,98323.76
2019-02-22T18:28:55.241Z,98328.14
2019-02-22T18:31:29.538Z,98329.20
2019-02-22T18:34:01.725Z,98327.33
2019-02-22T18:36:30.883Z,98334.86
2019-02-22T18:38:59.989Z,98333.09
2019-02-22T18:41:29.099Z,98335.44
2019-02-22T18:43:59.034Z,98349.56
2019-02-22T18:46:28.146Z,98330.11
2019-02-22T18:48:57.291Z,98323.95
2019-02-22T18:51:27.612Z,98330.83
2019-02-22T18:54:02.384Z,98333.28
2019-02-22T18:56:31.555Z,98330.08
2019-02-22T18:59:02.367Z,98331.89
2019-02-22T19:01:31.542Z,98332.58
2019-02-22T19:04:02.558Z,98344.14
2019-02-22T19:06:31.944Z,98337.42
2019-02-22T19:09:13.183Z,98330.23
2019-02-22T19:11:45.606Z,98335.38
2019-02-22T19:14:16.341Z,98332.54
2019-02-22T19:16:45.541Z,98340.28
2019-02-22T19:19:16.198Z,98338.41
2019-02-22T19:21:45.488Z,98343.43
2019-02-22T19:24:18.052Z,98341.31
2019-02-22T19:26:47.160Z,98337.55
2019-02-22T19:29:20.393Z,98335.62
2019-02-22T19:31:51.154Z,98342.03
2019-02-22T19:34:25.715Z,98339.37
2019-02-22T19:36:55.287Z,98337.02
2019-02-22T19:39:27.292Z,98333.58
2019-02-22T19:41:56.584Z,98339.52
2019-02-22T19:44:27.738Z,98343.92
2019-02-22T19:46:59.633Z,98349.55
2019-02-22T19:49:32.682Z,98353.22
2019-02-22T19:52:01.823Z,98355.09
2019-02-22T19:54:30.999Z,98350.81
2019-02-22T19:57:01.791Z,98355.98
2019-02-22T19:59:30.985Z,98358.88
2019-02-22T20:02:02.168Z,98359.23
2019-02-22T20:04:32.440Z,98358.03
2019-02-22T20:07:01.560Z,98352.80
2019-02-22T20:09:33.263Z,98353.92
2019-02-22T20:12:03.643Z,98360.17
2019-02-22T20:14:34.296Z,98361.52
2019-02-22T20:17:07.304Z,98356.34
2019-02-22T20:19:34.473Z,98359.55
2019-02-22T20:22:05.365Z,98357.16
2019-02-22T20:24:34.548Z,98358.49
2019-02-22T20:27:03.877Z,98359.69
2019-02-22T20:29:33.133Z,98359.27
2019-02-22T20:32:04.776Z,98361.94
2019-02-22T20:34:34.112Z,98364.00
2019-02-22T20:37:03.312Z,98362.45
2019-02-22T20:39:32.918Z,98368.14
2019-02-22T20:42:03.414Z,98367.05
2019-02-22T20:44:32.748Z,98371.34
2019-02-22T20:47:04.782Z,98376.80
2019-02-22T20:49:33.931Z,98373.04
2019-02-22T20:52:06.422Z,98381.03
2019-02-22T20:54:35.555Z,98385.37
2019-02-22T20:57:27.661Z,98405.92
2019-02-22T20:59:57.950Z,98385.95
2019-02-22T21:02:32.401Z,98392.63
2019-02-22T21:05:01.541Z,98394.22
2019-02-22T21:07:30.668Z,98387.98
2019-02-22T21:09:59.837Z,98384.84
2019-02-22T21:12:37.888Z,98396.84
2019-02-22T21:15:09.730Z,98396.23
2019-02-22T21:17:51.901Z,98401.32
2019-02-22T21:20:21.270Z,98404.14
2019-02-22T21:22:53.913Z,98411.98
2019-02-22T21:25:23.071Z,98409.66
2019-02-22T21:27:53.047Z,98415.92
2019-02-22T21:30:22.162Z,98415.94
2019-02-22T21:32:51.279Z,98420.95
2019-02-22T21:35:21.896Z,98416.71
2019-02-22T21:37:58.096Z,98419.20
2019-02-22T21:40:30.427Z,98417.39
2019-02-22T21:42:59.537Z,98419.53
2019-02-22T21:45:29.075Z,98421.79
2019-02-22T21:48:02.702Z,98420.94
2019-02-22T21:50:32.177Z,98417.23
2019-02-22T21:53:04.139Z,98412.36
2019-02-22T21:55:33.501Z,98413.88
2019-02-22T21:58:07.251Z,98408.50
2019-02-22T22:00:36.369Z,98403.64
2019-02-22T22:03:07.293Z,98401.84
2019-02-22T22:05:37.509Z,98403.20
2019-02-22T22:08:09.278Z,98404.46
2019-02-22T22:10:38.393Z,98407.83
2019-02-22T22:13:07.613Z,98412.62
2019-02-22T22:15:36.735Z,98402.09
2019-02-22T22:18:10.255Z,98395.92
2019-02-22T22:20:39.394Z,98397.67
2019-02-22T22:23:08.516Z,98404.99
2019-02-22T22:25:37.623Z,98405.67
2019-02-22T22:28:06.828Z,98411.50
2019-02-22T22:30:40.450Z,98413.62
2019-02-22T22:33:10.262Z,98410.56
2019-02-22T22:35:45.010Z,98413.22
2019-02-22T22:38:14.118Z,98409.97
2019-02-22T22:40:44.437Z,98414.53
2019-02-22T22:43:21.371Z,98416.75
2019-02-22T22:45:54.812Z,98412.20
2019-02-22T22:48:30.648Z,98413.80
2019-02-22T22:51:06.040Z,98411.42
2019-02-22T22:53:35.201Z,98412.37
2019-02-22T22:56:04.333Z,97086.55
2019-02-22T22:58:34.333Z,98417.27
2019-02-22T23:01:21.922Z,98429.06
2019-02-22T23:03:51.113Z,98087.59
2019-02-22T23:06:20.277Z,98416.30
2019-02-22T23:08:54.539Z,98421.47
2019-02-22T23:11:26.689Z,98423.98
2019-02-22T23:13:57.182Z,98420.37
2019-02-22T23:16:32.756Z,98413.59
2019-02-22T23:19:02.302Z,98412.29
2019-02-22T23:21:36.273Z,98412.62
2019-02-22T23:24:06.511Z,98414.34
2019-02-22T23:26:35.753Z,98422.16
2019-02-22T23:29:05.427Z,98418.13
2019-02-22T23:31:36.379Z,98440.27
2019-02-22T23:34:06.747Z,98419.92
2019-02-22T23:36:36.062Z,98430.19
2019-02-22T23:39:10.796Z,98435.48
2019-02-22T23:41:41.737Z,98433.22
2019-02-22T23:44:10.832Z,98442.80
2019-02-22T23:46:41.761Z,98442.88
2019-02-22T23:49:13.365Z,98477.03
2019-02-22T23:51:41.906Z,98455.13
2019-02-22T23:54:10.999Z,98458.95
2019-02-22T23:56:41.148Z,98462.75
2019-02-22T23:59:13.352Z,98458.80
